Terminal Aerodrome Forecast
Issued by NWS

Home | Current Version | Previous Version | Text Only | Print | Product List | Glossary On
Versions: 1 2 3 4 5 6 7 8 9 10 11 12 13 14 15 16 17 18 19 20 21
000
FTUS43 KDTX 302332
TAFDET
TAF
KDET 302332Z 0100/0124 07007KT 6SM -SHRA BR SCT008 SCT035 OVC060
      TEMPO 0101/0104 2SM TSRA OVC008CB
     FM010400 12008KT 2SM -SHRA BR BKN008 OVC035
     FM011400 20013G20KT P6SM BKN035
     FM011900 23020G30KT P6SM SCT050=

USA.gov is the U.S. government's official web portal to all federal, state and local government web resources and services.